Time;durP1;ratioP1;P1;durP2;ratioP2;P2;SDS_P1;SDS_P2;PMS_P1;PMS_P2;Temp;Humidity;BMP_temperature;BMP_pressure;BME280_temperature;BME280_humidity;BME280_pressure;Samples;Min_cycle;Max_cycle;Signal;HPM_P1;HPM_P2
2022/09/15 00:00:18;;;;;;;;;;;14.40;99.90;;;;;;5066831;28;20034;-74
2022/09/15 00:02:44;;;;;;;4.65;3.40;;;14.50;99.90;;;;;;5079765;28;20336;-74
2022/09/15 00:05:11;;;;;;;11.88;3.83;;;14.60;99.90;;;;;;5085471;28;20075;-74
2022/09/15 00:07:37;;;;;;;7.35;2.30;;;14.60;99.90;;;;;;5065980;28;20065;-74
2022/09/15 00:10:05;;;;;;;8.35;2.28;;;14.50;99.90;;;;;;5064594;28;20083;-73
2022/09/15 00:12:32;;;;;;;7.65;2.60;;;14.50;99.90;;;;;;5075787;28;20049;-74
2022/09/15 00:14:58;;;;;;;7.38;2.40;;;14.60;99.90;;;;;;5072475;28;20091;-74
2022/09/15 00:17:24;;;;;;;8.63;3.20;;;14.60;99.90;;;;;;5074830;28;20479;-73
2022/09/15 00:19:50;;;;;;;5.78;2.80;;;14.60;99.90;;;;;;5083916;28;20056;-73
2022/09/15 00:22:16;;;;;;;12.30;3.28;;;14.60;99.90;;;;;;5069150;28;20049;-74
2022/09/15 00:24:42;;;;;;;5.47;3.00;;;14.60;99.90;;;;;;5070279;28;20514;-73
2022/09/15 00:27:08;;;;;;;7.20;3.15;;;14.60;99.90;;;;;;5076277;28;20120;-73
2022/09/15 00:29:34;;;;;;;5.03;2.35;;;14.60;99.90;;;;;;5085544;28;20046;-74
2022/09/15 00:32:00;;;;;;;5.78;2.85;;;14.60;99.90;;;;;;5056399;28;20051;-74
2022/09/15 00:34:26;;;;;;;6.65;2.22;;;14.60;99.90;;;;;;5066479;28;20484;-73
2022/09/15 00:36:52;;;;;;;6.00;2.83;;;14.60;99.90;;;;;;5065517;28;20091;-74
2022/09/15 00:39:18;;;;;;;7.03;2.58;;;14.60;99.90;;;;;;5073606;28;20147;-74
2022/09/15 00:41:43;;;;;;;7.05;2.47;;;14.60;99.90;;;;;;5065831;28;20042;-73
2022/09/15 00:44:15;;;;;;;5.97;2.00;;;14.60;99.90;;;;;;5062638;28;20413;-74
2022/09/15 00:46:43;;;;;;;6.18;1.83;;;14.70;99.90;;;;;;5079215;28;20118;-74
2022/09/15 00:49:12;;;;;;;4.20;1.48;;;14.60;99.90;;;;;;5080808;28;20568;-74
2022/09/15 00:51:48;;;;;;;5.20;1.65;;;14.70;99.90;;;;;;5079334;28;20042;-74
2022/09/15 00:54:22;;;;;;;6.07;1.60;;;14.60;99.90;;;;;;5059628;28;20503;-74
2022/09/15 00:56:51;;;;;;;5.60;1.70;;;14.60;99.90;;;;;;5069184;28;20034;-74
2022/09/15 00:59:22;;;;;;;3.17;1.42;;;14.60;99.90;;;;;;5068950;28;20194;-74
2022/09/15 01:01:54;;;;;;;4.93;1.90;;;14.50;99.90;;;;;;5078141;28;20037;-74
2022/09/15 01:04:19;;;;;;;4.60;1.70;;;14.50;99.90;;;;;;5041379;28;20046;-74
2022/09/15 01:06:56;;;;;;;6.10;1.65;;;14.50;99.90;;;;;;5074913;28;20487;-74
2022/09/15 01:09:38;;;;;;;5.63;1.23;;;14.50;99.90;;;;;;5074106;28;20046;-74
2022/09/15 01:12:04;;;;;;;3.83;1.38;;;14.60;99.90;;;;;;5070070;28;20046;-74
2022/09/15 01:14:30;;;;;;;5.10;1.42;;;14.60;99.90;;;;;;5076643;28;20049;-74
2022/09/15 01:17:17;;;;;;;3.78;1.30;;;14.60;99.90;;;;;;5048587;28;20367;-74
2022/09/15 01:20:14;;;;;;;4.07;1.35;;;14.60;99.90;;;;;;5071785;28;20118;-74
2022/09/15 01:22:55;;;;;;;4.38;1.20;;;14.60;99.90;;;;;;5074731;28;20403;-74
2022/09/15 01:25:48;;;;;;;3.80;1.20;;;14.60;99.90;;;;;;5074700;28;20387;-74
2022/09/15 01:28:29;;;;;;;8.05;1.35;;;14.60;99.90;;;;;;5067320;28;20196;-74
2022/09/15 01:31:21;;;;;;;5.03;1.20;;;14.60;99.90;;;;;;5045578;28;20118;-74
2022/09/15 01:34:06;;;;;;;4.72;1.10;;;14.50;99.90;;;;;;5052687;28;20038;-74
2022/09/15 01:36:44;;;;;;;5.45;1.15;;;14.50;99.90;;;;;;5066017;28;20057;-74
2022/09/15 01:39:17;;;;;;;3.70;1.08;;;14.50;99.90;;;;;;5050700;28;20511;-74
2022/09/15 01:42:02;;;;;;;6.28;1.10;;;14.50;99.90;;;;;;5009554;28;20038;-75
2022/09/15 01:44:32;;;;;;;5.65;0.88;;;14.40;99.90;;;;;;5055431;28;20038;-74
2022/09/15 01:47:08;;;;;;;6.97;1.20;;;14.40;99.90;;;;;;5076540;28;20050;-74
2022/09/15 01:49:41;;;;;;;5.90;1.23;;;14.40;99.90;;;;;;5078795;28;20110;-74
2022/09/15 01:52:07;;;;;;;6.15;1.20;;;14.40;99.90;;;;;;5072811;28;20049;-74
2022/09/15 01:54:41;;;;;;;5.53;1.02;;;14.40;99.90;;;;;;5074894;28;20425;-74
2022/09/15 01:57:07;;;;;;;3.15;0.93;;;14.40;99.90;;;;;;5068302;28;20118;-74
2022/09/15 01:59:33;;;;;;;7.75;1.00;;;14.40;99.90;;;;;;5056365;28;20509;-74
2022/09/15 02:02:04;;;;;;;3.90;1.08;;;14.40;99.90;;;;;;5062730;28;20091;-74
2022/09/15 02:04:40;;;;;;;3.60;0.90;;;14.40;99.90;;;;;;5067859;28;20076;-74
2022/09/15 02:07:19;;;;;;;6.72;0.90;;;14.40;99.90;;;;;;5068673;28;20069;-74
2022/09/15 02:09:56;;;;;;;5.00;0.75;;;14.30;99.90;;;;;;5052524;28;20038;-74
2022/09/15 02:12:21;;;;;;;;;;;14.30;99.90;;;;;;5060187;28;20377;-74
2022/09/15 02:15:04;;;;;;;8.27;1.00;;;14.30;99.90;;;;;;5052593;28;19924;-74
2022/09/15 02:17:34;;;;;;;4.00;1.10;;;14.30;99.90;;;;;;5071071;28;20034;-75
2022/09/15 02:20:22;;;;;;;8.82;1.42;;;14.40;99.90;;;;;;5075612;28;20046;-75
2022/09/15 02:22:54;;;;;;;6.68;0.90;;;14.30;99.90;;;;;;5066101;28;20061;-76
2022/09/15 02:25:27;;;;;;;7.07;1.02;;;14.30;99.90;;;;;;5067592;28;20049;-74
2022/09/15 02:27:58;;;;;;;8.38;0.80;;;14.30;99.90;;;;;;5068355;28;20049;-74
2022/09/15 02:30:26;;;;;;;4.07;1.10;;;14.20;99.90;;;;;;5079055;28;20045;-75
2022/09/15 02:32:56;;;;;;;10.07;1.10;;;14.30;99.90;;;;;;5071063;28;20065;-75
2022/09/15 02:35:25;;;;;;;7.28;1.42;;;14.20;99.90;;;;;;5076341;28;20101;-74
2022/09/15 02:37:52;;;;;;;4.97;0.70;;;14.20;99.90;;;;;;5069495;28;20034;-74
2022/09/15 02:40:18;;;;;;;6.63;1.20;;;14.20;99.90;;;;;;5067576;28;20126;-74
2022/09/15 02:42:55;;;;;;;6.10;0.90;;;14.20;99.90;;;;;;5076186;28;20109;-74
2022/09/15 02:45:23;;;;;;;4.22;0.70;;;14.20;99.90;;;;;;5077323;28;20531;-74
2022/09/15 02:47:49;;;;;;;7.53;1.30;;;14.20;99.90;;;;;;5081066;28;20387;-74
2022/09/15 02:50:16;;;;;;;5.90;0.90;;;14.20;99.90;;;;;;5073106;28;20040;-74
2022/09/15 02:52:42;;;;;;;6.40;1.02;;;14.20;99.90;;;;;;5077146;28;20501;-74
2022/09/15 02:55:09;;;;;;;5.88;1.00;;;14.20;99.90;;;;;;5067498;28;20038;-74
2022/09/15 02:57:34;;;;;;;5.63;0.80;;;14.20;99.90;;;;;;5067641;28;20038;-74
2022/09/15 03:00:13;;;;;;;6.38;1.00;;;14.20;99.90;;;;;;5083342;28;20050;-75
2022/09/15 03:02:52;;;;;;;6.05;1.02;;;14.20;99.90;;;;;;5052042;28;20052;-75
2022/09/15 03:05:20;;;;;;;5.45;0.80;;;14.20;99.90;;;;;;5062775;28;20045;-75
2022/09/15 03:07:46;;;;;;;6.10;0.90;;;14.20;99.90;;;;;;5063972;28;20048;-75
2022/09/15 03:10:12;;;;;;;5.68;1.02;;;14.20;99.90;;;;;;5055404;28;20033;-75
2022/09/15 03:12:39;;;;;;;9.55;1.13;;;14.10;99.90;;;;;;5077116;28;20403;-75
2022/09/15 03:15:07;;;;;;;5.90;1.17;;;14.10;99.90;;;;;;5073315;28;20068;-75
2022/09/15 03:17:34;;;;;;;9.48;1.15;;;14.10;99.90;;;;;;5076955;28;20550;-75
2022/09/15 03:20:00;;;;;;;6.60;0.90;;;14.00;99.90;;;;;;5052927;28;20121;-75
2022/09/15 03:22:25;;;;;;;4.93;1.10;;;14.10;99.90;;;;;;5068320;28;20583;-75
2022/09/15 03:24:51;;;;;;;6.17;1.17;;;14.10;99.90;;;;;;5064739;28;20046;-75
2022/09/15 03:27:17;;;;;;;9.38;1.08;;;14.10;99.90;;;;;;5058484;28;20297;-75
2022/09/15 03:29:43;;;;;;;5.37;0.70;;;14.10;99.90;;;;;;5073866;28;20059;-75
2022/09/15 03:32:09;;;;;;;5.07;1.05;;;14.00;99.90;;;;;;5067203;28;20652;-75
2022/09/15 03:34:35;;;;;;;4.97;0.90;;;14.00;99.90;;;;;;5069699;28;20034;-75
2022/09/15 03:37:01;;;;;;;5.43;0.77;;;14.00;99.90;;;;;;5071888;28;20054;-75
2022/09/15 03:39:26;;;;;;;5.82;1.00;;;14.00;99.90;;;;;;5076934;28;20069;-75
2022/09/15 03:41:52;;;;;;;10.00;1.10;;;14.00;99.90;;;;;;5062414;28;20080;-75
2022/09/15 03:44:18;;;;;;;7.40;1.15;;;14.00;99.90;;;;;;5077242;28;20476;-75
2022/09/15 03:46:44;;;;;;;4.90;0.80;;;14.00;99.90;;;;;;5044539;28;20056;-75
2022/09/15 03:49:09;;;;;;;5.40;0.70;;;14.00;99.90;;;;;;5066415;28;20309;-75
2022/09/15 03:51:35;;;;;;;4.68;0.88;;;13.90;99.90;;;;;;5068271;28;20046;-75
2022/09/15 03:54:01;;;;;;;6.68;0.90;;;14.00;99.90;;;;;;5065065;28;20509;-75
2022/09/15 03:56:31;;;;;;;6.13;0.73;;;14.00;99.90;;;;;;5050462;28;20070;-75
2022/09/15 03:58:58;;;;;;;2.72;0.60;;;14.00;99.90;;;;;;5073112;28;20976;-75
2022/09/15 04:01:24;;;;;;;4.65;0.50;;;14.00;99.90;;;;;;5047867;28;20441;-75
2022/09/15 04:03:50;;;;;;;5.07;0.85;;;14.00;99.90;;;;;;5074180;28;20042;-75
2022/09/15 04:06:18;;;;;;;6.13;0.90;;;14.00;99.90;;;;;;5048824;28;20107;-75
2022/09/15 04:08:43;;;;;;;3.85;0.57;;;13.90;99.90;;;;;;5071023;28;20409;-75
2022/09/15 04:11:11;;;;;;;10.82;0.95;;;14.00;99.90;;;;;;5049808;28;20042;-75
2022/09/15 04:13:38;;;;;;;3.63;0.80;;;13.90;99.90;;;;;;5071691;28;20039;-75
2022/09/15 04:16:06;;;;;;;4.00;1.00;;;13.90;99.90;;;;;;5046695;28;20073;-75
2022/09/15 04:18:33;;;;;;;5.15;0.70;;;13.90;99.90;;;;;;5068836;28;20432;-75
2022/09/15 04:21:05;;;;;;;6.05;0.93;;;13.90;99.90;;;;;;5069908;28;20044;-75
2022/09/15 04:23:32;;;;;;;7.95;1.38;;;13.90;99.90;;;;;;5071564;28;20046;-74
2022/09/15 04:26:04;;;;;;;4.28;0.90;;;13.80;99.90;;;;;;5072565;28;20042;-75
2022/09/15 04:28:35;;;;;;;5.07;1.20;;;13.80;99.90;;;;;;5075650;28;20071;-75
2022/09/15 04:31:13;;;;;;;7.53;1.00;;;13.70;99.90;;;;;;5046057;28;20076;-75
2022/09/15 04:33:40;;;;;;;3.67;0.75;;;13.60;99.90;;;;;;5063634;28;20072;-75
2022/09/15 04:36:09;;;;;;;5.10;0.77;;;13.60;99.90;;;;;;5061945;28;20077;-75
2022/09/15 04:38:35;;;;;;;3.97;0.95;;;13.60;99.90;;;;;;5071228;28;20045;-75
2022/09/15 04:41:01;;;;;;;4.40;1.08;;;13.60;99.90;;;;;;5076853;28;20068;-75
2022/09/15 04:43:28;;;;;;;6.60;1.27;;;13.60;99.90;;;;;;5072796;28;20042;-76
2022/09/15 04:45:54;;;;;;;4.35;0.90;;;13.60;99.90;;;;;;5074194;28;20555;-75
2022/09/15 04:48:21;;;;;;;6.05;0.82;;;13.50;99.90;;;;;;5052298;28;20042;-75
2022/09/15 04:50:47;;;;;;;7.85;1.00;;;13.50;99.90;;;;;;5061264;28;20030;-75
2022/09/15 04:53:12;;;;;;;6.00;1.08;;;13.50;99.90;;;;;;5063001;28;20048;-75
2022/09/15 04:55:38;;;;;;;7.88;1.20;;;13.50;99.90;;;;;;5070212;28;20034;-75
2022/09/15 04:58:04;;;;;;;8.55;1.38;;;13.50;99.90;;;;;;5066542;28;20038;-75
2022/09/15 05:00:32;;;;;;;5.93;1.08;;;13.60;99.90;;;;;;5065726;28;20046;-75
2022/09/15 05:02:58;;;;;;;6.70;0.93;;;13.60;99.90;;;;;;5075861;28;20121;-75
2022/09/15 05:05:25;;;;;;;6.97;1.10;;;13.60;99.90;;;;;;5065772;28;20038;-74
2022/09/15 05:07:51;;;;;;;;;;;13.60;99.90;;;;;;5041835;28;20510;-74
2022/09/15 05:10:18;;;;;;;5.28;0.95;;;13.60;99.90;;;;;;5075204;28;20008;-74
2022/09/15 05:12:44;;;;;;;;;;;13.60;99.90;;;;;;5076344;28;20046;-74
2022/09/15 05:15:10;;;;;;;5.50;0.82;;;13.60;99.90;;;;;;5075549;28;19970;-74
2022/09/15 05:17:36;;;;;;;4.18;0.88;;;13.60;99.90;;;;;;5075101;28;20034;-74
2022/09/15 05:20:03;;;;;;;7.55;1.48;;;13.50;99.90;;;;;;5042871;28;20053;-74
2022/09/15 05:22:30;;;;;;;6.85;1.08;;;13.50;99.90;;;;;;5073958;28;20050;-74
2022/09/15 05:24:55;;;;;;;7.10;0.90;;;13.50;99.90;;;;;;5056646;28;20040;-74
2022/09/15 05:27:21;;;;;;;5.95;0.95;;;13.50;99.90;;;;;;5073694;28;20071;-74
2022/09/15 05:29:47;;;;;;;6.55;1.20;;;13.40;99.90;;;;;;5067033;28;20054;-73
2022/09/15 05:32:12;;;;;;;9.15;1.08;;;13.40;99.90;;;;;;5055562;28;20049;-74
2022/09/15 05:34:38;;;;;;;5.15;0.90;;;13.30;99.90;;;;;;5063663;28;20380;-74
2022/09/15 05:37:04;;;;;;;7.43;1.13;;;13.30;99.90;;;;;;5072062;28;20042;-75
2022/09/15 05:39:30;;;;;;;9.55;1.10;;;13.30;99.90;;;;;;5056628;28;20096;-75
2022/09/15 05:41:55;;;;;;;6.80;1.48;;;13.30;99.90;;;;;;5077977;28;20120;-73
2022/09/15 05:44:21;;;;;;;6.33;0.83;;;13.20;99.90;;;;;;5071104;28;20049;-74
2022/09/15 05:46:47;;;;;;;5.30;0.85;;;13.30;99.90;;;;;;5071003;28;20294;-74
2022/09/15 05:49:13;;;;;;;7.18;0.95;;;13.30;99.90;;;;;;5067989;28;20479;-75
2022/09/15 05:51:39;;;;;;;3.67;1.00;;;13.30;99.90;;;;;;5054233;28;20038;-74
2022/09/15 05:54:05;;;;;;;6.47;1.20;;;13.30;99.90;;;;;;5067482;28;20042;-74
2022/09/15 05:56:31;;;;;;;7.15;1.05;;;13.30;99.90;;;;;;5077471;28;20116;-75
2022/09/15 05:58:57;;;;;;;;;;;13.30;99.90;;;;;;5074498;28;20091;-75
2022/09/15 06:01:27;;;;;;;6.78;0.68;;;13.40;99.90;;;;;;5074912;28;19943;-75
2022/09/15 06:03:54;;;;;;;4.85;1.00;;;13.40;99.90;;;;;;5044789;28;20045;-75
2022/09/15 06:06:21;;;;;;;4.93;1.00;;;13.50;99.90;;;;;;5073218;28;20046;-75
2022/09/15 06:08:49;;;;;;;4.68;1.08;;;13.50;99.90;;;;;;5089988;28;20115;-75
2022/09/15 06:11:21;;;;;;;3.83;0.80;;;13.60;99.90;;;;;;5073173;28;20026;-75
2022/09/15 06:13:47;;;;;;;5.28;1.02;;;13.60;99.90;;;;;;5070096;28;20047;-75
2022/09/15 06:16:19;;;;;;;6.10;0.93;;;13.60;99.90;;;;;;5073436;28;20081;-75
2022/09/15 06:18:46;;;;;;;5.43;0.80;;;13.70;99.90;;;;;;5075115;28;20072;-75
2022/09/15 06:21:21;;;;;;;5.75;1.10;;;13.70;99.90;;;;;;5077893;28;20118;-75
2022/09/15 06:23:55;;;;;;;7.20;1.13;;;13.80;99.90;;;;;;5071383;28;20040;-75
2022/09/15 06:26:21;;;;;;;7.28;0.95;;;13.90;99.90;;;;;;5064803;28;20057;-75
2022/09/15 06:28:48;;;;;;;6.47;0.77;;;13.90;99.90;;;;;;5058335;28;20387;-75
2022/09/15 06:31:14;;;;;;;5.20;0.88;;;14.00;99.90;;;;;;5060417;28;20096;-75
2022/09/15 06:33:45;;;;;;;8.57;1.83;;;14.00;99.90;;;;;;5075739;28;20135;-75
2022/09/15 06:36:12;;;;;;;3.50;0.70;;;14.10;99.90;;;;;;5070007;28;20083;-75
2022/09/15 06:38:38;;;;;;;4.65;0.70;;;14.20;99.90;;;;;;5077995;28;20157;-75
2022/09/15 06:41:05;;;;;;;7.75;1.00;;;14.30;99.90;;;;;;5078824;28;20046;-75
2022/09/15 06:43:31;;;;;;;4.43;0.70;;;14.40;99.90;;;;;;5078146;28;20084;-75
2022/09/15 06:46:11;;;;;;;6.10;0.75;;;14.40;99.90;;;;;;5078652;28;20038;-75
2022/09/15 06:48:38;;;;;;;5.20;0.63;;;14.50;99.90;;;;;;5060904;28;20038;-75
2022/09/15 06:51:05;;;;;;;4.28;0.80;;;14.50;99.90;;;;;;5078360;28;20125;-73
2022/09/15 06:53:33;;;;;;;4.57;0.70;;;14.60;99.90;;;;;;5089862;28;20109;-75
2022/09/15 06:56:08;;;;;;;6.93;0.70;;;14.60;99.90;;;;;;5070842;28;20039;-73
2022/09/15 06:58:35;;;;;;;3.97;0.65;;;14.70;99.90;;;;;;5070280;28;20046;-75
2022/09/15 07:01:08;;;;;;;5.70;0.82;;;14.80;99.90;;;;;;5070355;28;20053;-74
2022/09/15 07:03:35;;;;;;;5.40;0.70;;;14.80;99.90;;;;;;5061308;28;20054;-74
2022/09/15 07:06:02;;;;;;;4.03;0.63;;;14.90;99.90;;;;;;5049923;28;20077;-74
2022/09/15 07:08:28;;;;;;;3.88;0.43;;;15.00;99.90;;;;;;5060183;28;20529;-75
2022/09/15 07:10:54;;;;;;;5.93;1.13;;;15.10;99.90;;;;;;5060295;28;20030;-75
2022/09/15 07:13:21;;;;;;;3.72;0.68;;;15.20;99.90;;;;;;5078858;28;20076;-75
2022/09/15 07:15:57;;;;;;;5.72;0.60;;;15.20;99.90;;;;;;5070496;28;20042;-75
2022/09/15 07:18:23;;;;;;;4.18;0.50;;;15.40;99.90;;;;;;5065146;28;20053;-75
2022/09/15 07:20:50;;;;;;;;;;;15.60;99.90;;;;;;5067942;28;20058;-75
2022/09/15 07:23:16;;;;;;;3.80;0.47;;;16.00;99.90;;;;;;5059306;28;20354;-75
2022/09/15 07:25:44;;;;;;;;;;;16.30;99.90;;;;;;5060553;28;20064;-75
2022/09/15 07:28:10;;;;;;;;;;;16.50;99.90;;;;;;5061955;28;19917;-75
2022/09/15 07:30:36;;;;;;;6.95;0.65;;;16.50;99.90;;;;;;5076454;28;20000;-75
2022/09/15 07:33:01;;;;;;;9.40;0.93;;;16.40;99.90;;;;;;5086308;28;20134;-75
2022/09/15 07:35:27;;;;;;;3.58;0.70;;;16.30;99.90;;;;;;5076879;28;20486;-75
2022/09/15 07:37:53;;;;;;;3.15;0.82;;;16.30;99.90;;;;;;5076296;28;20045;-75
2022/09/15 07:40:18;;;;;;;4.57;0.52;;;16.20;99.90;;;;;;5053064;28;20034;-75
2022/09/15 07:42:44;;;;;;;6.57;0.75;;;16.20;99.90;;;;;;5086955;28;20063;-75
2022/09/15 07:45:10;;;;;;;3.17;0.80;;;16.20;99.90;;;;;;5092379;28;20089;-75
2022/09/15 07:47:36;;;;;;;;;;;16.20;99.90;;;;;;5023022;28;20045;-75
2022/09/15 07:50:03;;;;;;;4.22;0.60;;;16.20;99.90;;;;;;5077233;28;20382;-75
2022/09/15 07:52:29;;;;;;;4.60;0.75;;;16.20;99.90;;;;;;5054976;28;20038;-75
2022/09/15 07:54:55;;;;;;;8.57;1.23;;;16.10;99.90;;;;;;5077170;28;20156;-75
2022/09/15 07:57:21;;;;;;;6.85;0.80;;;16.10;99.90;;;;;;5076948;28;20527;-75
2022/09/15 07:59:46;;;;;;;6.00;1.00;;;16.00;99.90;;;;;;5076517;28;20395;-75
2022/09/15 08:02:16;;;;;;;7.15;0.80;;;16.00;99.90;;;;;;5052706;28;20042;-75
2022/09/15 08:04:42;;;;;;;5.78;0.82;;;15.90;99.90;;;;;;5077886;28;20388;-75
2022/09/15 08:07:08;;;;;;;;;;;15.90;99.90;;;;;;5083222;28;20431;-75
2022/09/15 08:09:36;;;;;;;5.82;0.80;;;16.00;99.90;;;;;;5068441;28;19921;-75
2022/09/15 08:12:03;;;;;;;4.18;0.80;;;16.00;99.90;;;;;;5067080;28;20399;-75
2022/09/15 08:14:30;;;;;;;5.38;0.75;;;16.10;99.90;;;;;;5072980;28;20467;-75
2022/09/15 08:16:59;;;;;;;4.85;0.70;;;16.20;99.90;;;;;;5074448;28;20471;-75
2022/09/15 08:19:26;;;;;;;4.60;0.80;;;16.40;99.90;;;;;;5057392;28;20124;-75
2022/09/15 08:21:52;;;;;;;4.20;0.82;;;16.50;99.90;;;;;;5078109;28;20411;-75
2022/09/15 08:24:18;;;;;;;3.45;0.68;;;16.80;99.90;;;;;;5074510;28;20088;-75
2022/09/15 08:26:43;;;;;;;4.72;0.80;;;17.00;99.90;;;;;;5065924;28;20096;-75
2022/09/15 08:29:09;;;;;;;5.68;0.90;;;17.10;99.90;;;;;;5080748;28;20050;-75
2022/09/15 08:31:35;;;;;;;6.25;0.93;;;17.20;99.90;;;;;;5087506;28;20073;-75
2022/09/15 08:34:05;;;;;;;9.90;1.15;;;17.20;99.90;;;;;;5030513;28;20042;-75
2022/09/15 08:36:31;;;;;;;9.02;1.75;;;17.00;99.90;;;;;;5075016;28;20686;-74
2022/09/15 08:38:57;;;;;;;3.15;0.68;;;16.90;99.90;;;;;;5053440;28;20042;-74
2022/09/15 08:41:33;;;;;;;6.47;0.85;;;16.80;99.90;;;;;;5023386;28;20031;-74
2022/09/15 08:44:20;;;;;;;6.90;1.10;;;16.80;99.90;;;;;;5068117;28;20053;-74
2022/09/15 08:46:59;;;;;;;4.93;0.80;;;16.90;99.90;;;;;;5080511;28;20437;-74
2022/09/15 08:49:30;;;;;;;5.55;1.00;;;17.10;99.90;;;;;;5057643;28;20409;-74
2022/09/15 08:52:02;;;;;;;6.45;1.20;;;17.20;99.90;;;;;;5077400;28;20068;-75
2022/09/15 08:54:29;;;;;;;4.93;0.80;;;17.30;99.90;;;;;;5067374;28;20487;-74
2022/09/15 08:56:57;;;;;;;3.88;0.80;;;17.30;99.90;;;;;;5075494;28;20049;-75
2022/09/15 08:59:30;;;;;;;3.97;0.77;;;17.30;99.90;;;;;;5069644;28;20045;-75
2022/09/15 09:02:16;;;;;;;5.28;1.35;;;17.30;99.90;;;;;;5075460;28;20053;-75
2022/09/15 09:04:48;;;;;;;7.05;1.17;;;17.20;99.90;;;;;;5044397;28;20768;-75
2022/09/15 09:07:41;;;;;;;9.75;1.20;;;17.10;99.90;;;;;;5074077;28;20045;-75
2022/09/15 09:10:37;;;;;;;6.00;1.00;;;17.00;99.90;;;;;;5078341;28;20078;-75
2022/09/15 09:13:18;;;;;;;3.38;0.93;;;16.70;99.90;;;;;;5071051;28;20364;-75
2022/09/15 09:16:12;;;;;;;3.53;0.70;;;16.50;99.90;;;;;;5077590;28;20117;-75
2022/09/15 09:18:59;;;;;;;5.82;0.95;;;16.40;99.90;;;;;;5075305;28;20029;-75
2022/09/15 09:21:34;;;;;;;3.75;0.98;;;16.40;99.90;;;;;;5058909;28;20072;-75
2022/09/15 09:24:16;;;;;;;6.15;1.70;;;16.50;99.90;;;;;;5053728;28;20054;-75
2022/09/15 09:26:43;;;;;;;5.50;1.00;;;16.60;99.90;;;;;;5058625;28;20390;-75
2022/09/15 09:29:35;;;;;;;5.03;0.90;;;16.80;99.90;;;;;;5068309;28;20042;-75
2022/09/15 09:32:02;;;;;;;10.18;1.27;;;17.00;99.90;;;;;;5066736;28;20525;-74
2022/09/15 09:34:40;;;;;;;7.80;1.25;;;17.10;99.90;;;;;;5063733;28;20061;-74
2022/09/15 09:37:11;;;;;;;7.68;1.50;;;17.20;99.90;;;;;;5070285;28;20050;-74
2022/09/15 09:39:37;;;;;;;5.70;1.08;;;17.40;99.90;;;;;;5053080;28;20041;-74
2022/09/15 09:42:04;;;;;;;3.58;0.80;;;17.40;99.90;;;;;;5077068;28;20056;-74
2022/09/15 09:44:31;;;;;;;2.80;0.65;;;16.70;99.90;;;;;;5053060;28;20117;-74
2022/09/15 09:46:58;;;;;;;3.13;0.55;;;16.10;99.90;;;;;;5055499;28;20060;-75
2022/09/15 09:49:27;;;;;;;4.25;0.68;;;15.80;99.90;;;;;;5068487;28;20042;-75
2022/09/15 09:51:56;;;;;;;2.92;0.50;;;15.70;99.90;;;;;;5052728;28;20034;-75
2022/09/15 09:54:26;;;;;;;4.22;0.52;;;15.80;99.90;;;;;;5063702;28;20449;-76
2022/09/15 09:56:53;;;;;;;4.30;0.70;;;16.00;99.90;;;;;;5053241;28;20042;-75
2022/09/15 09:59:37;;;;;;;1.73;0.40;;;16.10;99.90;;;;;;5075138;28;20144;-76
2022/09/15 10:02:05;;;;;;;4.15;0.70;;;16.30;99.90;;;;;;5069028;28;20039;-76
2022/09/15 10:04:30;;;;;;;2.20;0.45;;;16.70;99.90;;;;;;5081842;28;20040;-76
2022/09/15 10:06:56;;;;;;;4.07;0.40;;;17.30;99.90;;;;;;5053654;28;20095;-76
2022/09/15 10:09:22;;;;;;;2.28;0.70;;;18.40;99.90;;;;;;5066105;28;20560;-76
2022/09/15 10:11:53;;;;;;;1.80;0.50;;;19.50;99.90;;;;;;5076408;28;20094;-75
2022/09/15 10:14:34;;;;;;;2.28;0.50;;;20.60;99.90;;;;;;5071871;28;20038;-75
2022/09/15 10:17:07;;;;;;;7.25;1.30;;;21.40;99.90;;;;;;5085652;28;20057;-75
2022/09/15 10:19:44;;;;;;;4.03;0.75;;;21.60;99.90;;;;;;5067983;28;20035;-75
2022/09/15 10:22:42;;;;;;;4.47;0.50;;;22.20;99.90;;;;;;5079107;28;20050;-75
2022/09/15 10:25:20;;;;;;;3.83;0.60;;;22.50;99.90;;;;;;5044778;28;20141;-75
2022/09/15 10:28:20;;;;;;;2.92;0.57;;;22.20;99.90;;;;;;5074153;28;20074;-75
2022/09/15 10:31:09;;;;;;;5.28;0.88;;;22.00;99.90;;;;;;5011019;28;20058;-75
2022/09/15 10:33:37;;;;;;;5.20;0.60;;;21.50;99.90;;;;;;5076656;28;20042;-75
2022/09/15 10:36:11;;;;;;;3.53;0.50;;;20.90;99.90;;;;;;5077913;28;20125;-75
2022/09/15 10:38:44;;;;;;;4.00;0.85;;;20.40;99.90;;;;;;5086655;28;20118;-75
2022/09/15 10:41:24;;;;;;;3.40;0.80;;;19.50;99.90;;;;;;5074256;28;20049;-75
2022/09/15 10:44:00;;;;;;;2.17;0.50;;;19.30;99.90;;;;;;5073130;28;20045;-74
2022/09/15 10:46:50;;;;;;;6.30;0.85;;;18.90;99.90;;;;;;5050924;28;20400;-74
2022/09/15 10:49:50;;;;;;;3.25;0.60;;;18.50;99.90;;;;;;5075971;28;20599;-74
2022/09/15 10:52:23;;;;;;;2.05;0.50;;;18.10;99.90;;;;;;5071919;28;20038;-74
2022/09/15 10:55:01;;;;;;;2.55;0.43;;;17.90;99.90;;;;;;5087644;28;20028;-75
2022/09/15 10:57:45;;;;;;;2.08;0.40;;;17.80;99.90;;;;;;5080564;28;20040;-75
2022/09/15 11:00:38;;;;;;;3.28;0.38;;;17.70;99.90;;;;;;5064629;28;20427;-75
2022/09/15 11:03:40;;;;;;;2.30;0.20;;;17.70;99.90;;;;;;5065758;28;20047;-75
2022/09/15 11:06:30;;;;;;;2.50;0.25;;;17.80;99.90;;;;;;5044054;28;20138;-75
2022/09/15 11:08:55;;;;;;;0.68;0.22;;;17.90;99.90;;;;;;5063494;28;20117;-75
2022/09/15 11:11:47;;;;;;;2.13;0.40;;;18.20;99.90;;;;;;5079941;28;20123;-75
2022/09/15 11:14:35;;;;;;;2.60;0.60;;;18.60;99.90;;;;;;5065924;28;20061;-75
2022/09/15 11:17:07;;;;;;;;;;;18.90;99.90;;;;;;5073859;28;20051;-76
2022/09/15 11:19:59;;;;;;;2.65;0.40;;;19.10;99.90;;;;;;5074671;28;19921;-76
2022/09/15 11:22:55;;;;;;;3.85;0.60;;;19.40;99.90;;;;;;5064155;28;20081;-76
2022/09/15 11:25:28;;;;;;;2.65;0.60;;;19.60;99.90;;;;;;5035352;28;20077;-76
2022/09/15 11:28:03;;;;;;;3.92;0.52;;;19.70;99.90;;;;;;5070577;28;20048;-75
2022/09/15 11:30:35;;;;;;;3.08;0.50;;;19.70;99.90;;;;;;5060966;28;20115;-75
2022/09/15 11:33:16;;;;;;;3.75;0.68;;;19.80;99.90;;;;;;5077602;28;20500;-74
2022/09/15 11:36:05;;;;;;;7.53;0.80;;;19.80;99.90;;;;;;5060685;28;20041;-75
2022/09/15 11:38:54;;;;;;;2.63;0.50;;;19.80;99.90;;;;;;5064788;28;20041;-75
2022/09/15 11:41:35;;;;;;;4.93;0.80;;;19.80;99.90;;;;;;5070424;28;20414;-75
2022/09/15 11:44:09;;;;;;;2.88;0.60;;;19.80;99.90;;;;;;5071314;28;20175;-75
2022/09/15 11:47:01;;;;;;;3.13;0.50;;;19.80;99.90;;;;;;5084140;28;20506;-74
2022/09/15 11:49:32;;;;;;;2.53;0.40;;;20.10;99.90;;;;;;5051864;28;20038;-75
2022/09/15 11:52:06;;;;;;;3.72;0.43;;;20.50;99.90;;;;;;5053770;28;20042;-75
2022/09/15 11:54:47;;;;;;;3.13;0.63;;;20.70;99.90;;;;;;5062387;28;20065;-75
2022/09/15 11:57:22;;;;;;;2.92;0.60;;;21.10;99.90;;;;;;5067264;28;20552;-75
2022/09/15 12:00:00;;;;;;;4.55;0.70;;;20.80;99.90;;;;;;5084418;28;20044;-75
2022/09/15 12:02:45;;;;;;;2.67;0.43;;;21.10;99.90;;;;;;5062955;28;20047;-75
2022/09/15 12:05:22;;;;;;;2.35;0.50;;;21.20;99.90;;;;;;5076853;28;20041;-74
2022/09/15 12:07:59;;;;;;;5.22;0.60;;;20.90;99.90;;;;;;5068197;28;20066;-75
2022/09/15 12:10:42;;;;;;;4.22;0.60;;;20.60;99.90;;;;;;5075884;28;20081;-75
2022/09/15 12:13:17;;;;;;;2.42;0.40;;;20.40;99.90;;;;;;5073663;28;20041;-75
2022/09/15 12:15:44;;;;;;;2.00;0.50;;;20.30;99.90;;;;;;5052856;28;20476;-75
2022/09/15 12:18:43;;;;;;;1.77;0.60;;;20.10;99.90;;;;;;5066205;28;20054;-75
2022/09/15 12:21:37;;;;;;;1.90;0.38;;;20.10;99.90;;;;;;5063285;28;20062;-75
2022/09/15 12:24:34;;;;;;;3.15;0.40;;;20.30;99.90;;;;;;5017663;28;20371;-75
2022/09/15 12:27:01;;;;;;;1.70;0.35;;;21.10;99.90;;;;;;5075027;28;20057;-75
2022/09/15 12:29:26;;;;;;;3.35;0.40;;;21.70;99.90;;;;;;5073934;28;20045;-74
2022/09/15 12:32:17;;;;;;;2.65;0.60;;;22.10;99.20;;;;;;5066585;28;20387;-74
2022/09/15 12:35:00;;;;;;;3.47;0.70;;;22.70;98.20;;;;;;5076453;28;20041;-75
2022/09/15 12:37:38;;;;;;;2.95;0.47;;;22.50;98.40;;;;;;5070704;28;20038;-75
2022/09/15 12:40:22;;;;;;;3.50;0.40;;;22.20;98.50;;;;;;5066451;28;20057;-75
2022/09/15 12:42:48;;;;;;;3.60;0.60;;;21.70;99.20;;;;;;5078733;28;20121;-74
2022/09/15 12:45:24;;;;;;;2.92;0.57;;;21.30;99.80;;;;;;5073077;28;20042;-74
2022/09/15 12:47:55;;;;;;;2.30;0.60;;;21.00;99.90;;;;;;5059119;28;20046;-75
2022/09/15 12:50:30;;;;;;;5.07;1.35;;;20.80;99.90;;;;;;5073794;28;20046;-75
2022/09/15 12:53:19;;;;;;;2.67;0.60;;;20.60;99.90;;;;;;5078674;28;20144;-75
2022/09/15 12:56:06;;;;;;;3.67;0.50;;;20.60;99.90;;;;;;5030308;28;20385;-75
2022/09/15 12:58:36;;;;;;;3.08;0.50;;;21.50;99.90;;;;;;5046896;28;20117;-75
2022/09/15 13:01:17;;;;;;;4.63;0.57;;;21.80;99.90;;;;;;5069571;28;20046;-75
2022/09/15 13:03:43;;;;;;;2.40;0.30;;;21.60;99.10;;;;;;5052156;28;20034;-75
2022/09/15 13:06:09;;;;;;;3.40;0.50;;;21.60;99.90;;;;;;5082115;28;20077;-75
2022/09/15 13:08:35;;;;;;;2.58;0.47;;;21.40;99.20;;;;;;5066212;28;20046;-75
2022/09/15 13:11:06;;;;;;;3.70;0.50;;;21.10;99.90;;;;;;5074772;28;20403;-75
2022/09/15 13:13:46;;;;;;;4.03;0.52;;;21.00;99.90;;;;;;5045330;28;20395;-75